Shahrekord, Iran
Current Conditions -  °F | °C
As of 12:00 PM on Friday 31 Oct 2014 (Local Time) from OIFS Reporting Station
Moderate Rain Moderate Rain  
Wind Chill: 33°   Ceiling: 7000
Heat Index: 39°   Visibility: 3mi
Dew Point: 39°   Wind: 9mph
Humidity: 100%   Direction: 120°ESE
Pressure: 30.21"   Gusts: NA
Location:  32.33°N, 50.86°E
Report Text: OIFS 310900Z 12008KT 5000 RA FEW015 FEW030CB SCT035 OVC070 04/04 Q1023 RETS
Loading
Personal Weather Stations






























Interactive Weather Map
Tropical Storm Tracking
New forecast layout! Learn more

10-Day Weather Forecast

Advertisements
Track Severe Weather on mobile